Tuesday, January 22, 2019, 4:04 PM EST
Back to Local

KMVL, Morrisville Stowe State Airport

Location: Morrisville, VT, United States Lat: 44.533
Local Time: 4:04 PM EST (21:04 GMT) Lon: -72.617
Time Zone: US/Eastern Elev: 731 ft

Show me the last for .
Show Coded

Time T Td Feel RH Dir Speed Gust Alt SLP Vis Weather Sky Remarks
2019-01-22 14:54 9 -9 -1 42 30° 6 - 30.54 30.60 10 CLR None
2019-01-22 13:54 8 -9 -5 44 20° 9 - 30.53 30.59 10 None
2019-01-22 12:54 - - - 0 - - - 30.52 - 0 6-hr Precip Total (1pm): 0.00"
2019-01-22 11:54 7 -9 -6 46 20° 8 - 30.53 30.60 10 None
2019-01-22 10:54 3 -11 -12 50 20° 9 - 30.55 30.61 10 1-hr Precip Total: Trace
2019-01-22 09:54 0 -13 -12 53 30° 6 - 30.56 30.63 10 -SN 1-hr Precip Total: Trace
6-hr Precip Total (10am): 0.00"
2019-01-22 08:54 -5 -14 -14 64 50° 3 - 30.54 30.60 10 None
2019-01-22 07:54 -14 -19 -24 77 340° 3 - 30.52 30.59 10 None
2019-01-22 06:54 -8 -16 -23 66 50° 7 - 30.48 30.55 10 6-hr Min Temp (7am): -9.0°F
6-hr Max Temp (7am): -2.0°F
2019-01-22 05:54 -7 -16 -21 63 60° 7 - 30.44 30.51 10 None
2019-01-22 04:54 -7 -15 -16 67 360° 3 - 30.42 30.49 10 None
2019-01-22 03:54 -6 -14 -23 66 30° 9 - 30.39 30.46 10 None
2019-01-22 02:54 -8 -14 -17 73 110° 3 - 30.37 30.44 10 None
2019-01-22 01:54 -3 -13 -15 60 Variable 6 - 30.34 30.41 10 None
2019-01-22 00:54 -3 -13 -11 60 Variable 3 - 30.29 30.36 10 6-hr Min Temp (1am): -5.1°F
6-hr Max Temp (1am): -0.0°F
2019-01-21 23:54 -2 -12 - 61 - Calm - 30.24 30.31 10 24-hr Min Temp (12am): -9.0°F
24-hr Max Temp (12am): -0.0°F
2019-01-21 22:54 -2 -12 -14 61 170° 6 - 30.20 30.27 10 None
2019-01-21 21:54 -3 -14 -16 57 140° 7 - 30.15 30.22 10 None
2019-01-21 20:54 -2 -14 - 55 - Calm - 30.13 30.20 10 None
2019-01-21 19:54 -2 -14 - 55 - - - 30.10 30.17 10 None
2019-01-21 18:54 -2 -14 -29 55 290° 9 31 30.06 30.13 8 Peak wind: 31 mph (27 kts) from 300° at 50 min
1-hr Precip Total: Trace
6-hr Precip Total (7pm): 0.00"
6-hr Min Temp (7pm): -5.1°F
6-hr Max Temp (7pm): -2.0°F
2019-01-21 17:54 -3 -13 -28 60 300° 14 24 30.02 30.09 3 -SN 1-hr Precip Total: Trace
2019-01-21 16:54 -3 -13 -27 60 340° 13 23 29.99 30.06 5 -SN 1-hr Precip Total: Trace
2019-01-21 16:41 -4 -12 -28 67 Variable 5 21 29.97 - 2 -SN 1-hr Precip Total: Trace
2019-01-21 16:10 -4 -12 -26 67 340° 10 17 29.96 - 1 -SN 1-hr Precip Total: Trace

Support USWX by starting your Amazon purchase here.